Castle Hill, Maine
Current Conditions -  °F | °C
As of 9:15 PM on Saturday 22 Nov 2014 (Local Time) from KPQI Reporting Station
Overcast Overcast  
Wind Chill: 22°   Ceiling: 3000
Heat Index: 30°   Visibility: 10mi
Dew Point: 18°   Wind: 9mph
Humidity: 60%   Direction: 200°SSW
Pressure: 29.78"   Gusts: NA
Location:  46.5489°N, 68.172°W
Report Text: KPQI 230215Z AUTO 20008KT 10SM OVC030 M01/M08 A2978 RMK AO1
Loading
Personal Weather Stations






























Interactive Weather Map New forecast layout! Learn more

10-Day Weather Forecast

Advertisements
Track Severe Weather on mobile